sensor_id;sensor_type;location;lat;lon;timestamp;temperature;humidity
16511;DHT22;8368;48.772;8.754;2023-04-22T00:00:22;8.30;99.90
16511;DHT22;8368;48.772;8.754;2023-04-22T00:02:47;8.30;99.90
16511;DHT22;8368;48.772;8.754;2023-04-22T00:05:13;8.30;99.90
16511;DHT22;8368;48.772;8.754;2023-04-22T00:07:39;8.20;99.90
16511;DHT22;8368;48.772;8.754;2023-04-22T00:10:06;8.20;99.90
16511;DHT22;8368;48.772;8.754;2023-04-22T00:12:32;8.20;99.90
16511;DHT22;8368;48.772;8.754;2023-04-22T00:14:59;8.20;99.90
16511;DHT22;8368;48.772;8.754;2023-04-22T00:17:24;8.20;99.90
16511;DHT22;8368;48.772;8.754;2023-04-22T00:19:50;8.20;99.90
16511;DHT22;8368;48.772;8.754;2023-04-22T00:22:16;8.20;99.90
16511;DHT22;8368;48.772;8.754;2023-04-22T00:24:41;8.20;99.90
16511;DHT22;8368;48.772;8.754;2023-04-22T00:27:07;8.20;99.90
16511;DHT22;8368;48.772;8.754;2023-04-22T00:29:33;8.20;99.90
16511;DHT22;8368;48.772;8.754;2023-04-22T00:31:58;8.20;99.90
16511;DHT22;8368;48.772;8.754;2023-04-22T00:34:24;8.20;99.90
16511;DHT22;8368;48.772;8.754;2023-04-22T00:36:49;8.20;99.90
16511;DHT22;8368;48.772;8.754;2023-04-22T00:39:16;8.20;99.90
16511;DHT22;8368;48.772;8.754;2023-04-22T00:41:42;8.20;99.90
16511;DHT22;8368;48.772;8.754;2023-04-22T00:44:11;8.20;99.90
16511;DHT22;8368;48.772;8.754;2023-04-22T00:46:40;8.20;99.90
16511;DHT22;8368;48.772;8.754;2023-04-22T00:49:06;8.20;99.90
16511;DHT22;8368;48.772;8.754;2023-04-22T00:51:32;8.10;99.90
16511;DHT22;8368;48.772;8.754;2023-04-22T00:53:58;8.10;99.90
16511;DHT22;8368;48.772;8.754;2023-04-22T00:56:27;8.10;99.90
16511;DHT22;8368;48.772;8.754;2023-04-22T00:58:53;8.10;99.90
16511;DHT22;8368;48.772;8.754;2023-04-22T01:01:19;8.10;99.90
16511;DHT22;8368;48.772;8.754;2023-04-22T01:03:47;8.10;99.90
16511;DHT22;8368;48.772;8.754;2023-04-22T01:06:14;8.00;99.90
16511;DHT22;8368;48.772;8.754;2023-04-22T01:08:40;8.10;99.90
16511;DHT22;8368;48.772;8.754;2023-04-22T01:11:06;8.00;99.90
16511;DHT22;8368;48.772;8.754;2023-04-22T01:13:31;8.00;99.90
16511;DHT22;8368;48.772;8.754;2023-04-22T01:15:57;8.00;99.90
16511;DHT22;8368;48.772;8.754;2023-04-22T01:18:24;8.00;99.90
16511;DHT22;8368;48.772;8.754;2023-04-22T01:20:51;8.00;99.90
16511;DHT22;8368;48.772;8.754;2023-04-22T01:23:20;8.00;99.90
16511;DHT22;8368;48.772;8.754;2023-04-22T01:25:47;8.00;99.90
16511;DHT22;8368;48.772;8.754;2023-04-22T01:28:14;8.00;99.90
16511;DHT22;8368;48.772;8.754;2023-04-22T01:30:41;8.00;99.90
16511;DHT22;8368;48.772;8.754;2023-04-22T01:33:07;8.00;99.90
16511;DHT22;8368;48.772;8.754;2023-04-22T01:35:33;7.90;99.90
16511;DHT22;8368;48.772;8.754;2023-04-22T01:38:06;7.90;99.90
16511;DHT22;8368;48.772;8.754;2023-04-22T01:40:32;7.90;99.90
16511;DHT22;8368;48.772;8.754;2023-04-22T01:42:58;7.90;99.90
16511;DHT22;8368;48.772;8.754;2023-04-22T01:45:25;7.90;99.90
16511;DHT22;8368;48.772;8.754;2023-04-22T01:47:50;7.80;99.90
16511;DHT22;8368;48.772;8.754;2023-04-22T01:50:16;7.80;99.90
16511;DHT22;8368;48.772;8.754;2023-04-22T01:52:42;7.80;99.90
16511;DHT22;8368;48.772;8.754;2023-04-22T01:55:08;7.80;99.90
16511;DHT22;8368;48.772;8.754;2023-04-22T01:57:34;7.80;99.90
16511;DHT22;8368;48.772;8.754;2023-04-22T02:00:00;7.80;99.90
16511;DHT22;8368;48.772;8.754;2023-04-22T02:02:26;7.80;99.90
16511;DHT22;8368;48.772;8.754;2023-04-22T02:04:51;7.70;99.90
16511;DHT22;8368;48.772;8.754;2023-04-22T02:07:17;7.70;99.90
16511;DHT22;8368;48.772;8.754;2023-04-22T02:09:43;7.70;99.90
16511;DHT22;8368;48.772;8.754;2023-04-22T02:12:08;7.70;99.90
16511;DHT22;8368;48.772;8.754;2023-04-22T02:14:34;7.70;99.90
16511;DHT22;8368;48.772;8.754;2023-04-22T02:16:59;7.70;99.90
16511;DHT22;8368;48.772;8.754;2023-04-22T02:19:26;7.70;99.90
16511;DHT22;8368;48.772;8.754;2023-04-22T02:21:52;7.70;99.90
16511;DHT22;8368;48.772;8.754;2023-04-22T02:24:18;7.60;99.90
16511;DHT22;8368;48.772;8.754;2023-04-22T02:26:43;7.60;99.90
16511;DHT22;8368;48.772;8.754;2023-04-22T02:29:09;7.60;99.90
16511;DHT22;8368;48.772;8.754;2023-04-22T02:31:34;7.70;99.90
16511;DHT22;8368;48.772;8.754;2023-04-22T02:34:00;7.60;99.90
16511;DHT22;8368;48.772;8.754;2023-04-22T02:36:25;7.60;99.90
16511;DHT22;8368;48.772;8.754;2023-04-22T02:38:52;7.60;99.90
16511;DHT22;8368;48.772;8.754;2023-04-22T02:41:17;7.60;99.90
16511;DHT22;8368;48.772;8.754;2023-04-22T02:43:43;7.50;99.90
16511;DHT22;8368;48.772;8.754;2023-04-22T02:46:11;7.50;99.90
16511;DHT22;8368;48.772;8.754;2023-04-22T02:48:38;7.50;99.90
16511;DHT22;8368;48.772;8.754;2023-04-22T02:51:04;7.40;99.90
16511;DHT22;8368;48.772;8.754;2023-04-22T02:53:30;7.40;99.90
16511;DHT22;8368;48.772;8.754;2023-04-22T02:55:56;7.40;99.90
16511;DHT22;8368;48.772;8.754;2023-04-22T02:58:22;7.40;99.90
16511;DHT22;8368;48.772;8.754;2023-04-22T03:00:48;7.30;99.90
16511;DHT22;8368;48.772;8.754;2023-04-22T03:03:14;7.30;99.90
16511;DHT22;8368;48.772;8.754;2023-04-22T03:05:40;7.30;99.90
16511;DHT22;8368;48.772;8.754;2023-04-22T03:08:05;7.30;99.90
16511;DHT22;8368;48.772;8.754;2023-04-22T03:10:31;7.30;99.90
16511;DHT22;8368;48.772;8.754;2023-04-22T03:12:57;7.30;99.90
16511;DHT22;8368;48.772;8.754;2023-04-22T03:15:22;7.30;99.90
16511;DHT22;8368;48.772;8.754;2023-04-22T03:17:48;7.30;99.90
16511;DHT22;8368;48.772;8.754;2023-04-22T03:20:14;7.30;99.90
16511;DHT22;8368;48.772;8.754;2023-04-22T03:22:39;7.20;99.90
16511;DHT22;8368;48.772;8.754;2023-04-22T03:25:05;7.20;99.90
16511;DHT22;8368;48.772;8.754;2023-04-22T03:27:31;7.20;99.90
16511;DHT22;8368;48.772;8.754;2023-04-22T03:29:57;7.20;99.90
16511;DHT22;8368;48.772;8.754;2023-04-22T03:32:22;7.20;99.90
16511;DHT22;8368;48.772;8.754;2023-04-22T03:34:48;7.20;99.90
16511;DHT22;8368;48.772;8.754;2023-04-22T03:37:13;7.20;99.90
16511;DHT22;8368;48.772;8.754;2023-04-22T03:39:39;7.10;99.90
16511;DHT22;8368;48.772;8.754;2023-04-22T03:42:04;7.10;99.90
16511;DHT22;8368;48.772;8.754;2023-04-22T03:44:30;7.10;99.90
16511;DHT22;8368;48.772;8.754;2023-04-22T03:46:55;7.10;99.90
16511;DHT22;8368;48.772;8.754;2023-04-22T03:49:21;7.00;99.90
16511;DHT22;8368;48.772;8.754;2023-04-22T03:51:46;7.00;99.90
16511;DHT22;8368;48.772;8.754;2023-04-22T03:54:12;7.00;99.90
16511;DHT22;8368;48.772;8.754;2023-04-22T03:56:37;7.10;99.90
16511;DHT22;8368;48.772;8.754;2023-04-22T03:59:03;7.10;99.90
16511;DHT22;8368;48.772;8.754;2023-04-22T04:01:29;7.10;99.90
16511;DHT22;8368;48.772;8.754;2023-04-22T04:03:54;7.10;99.90
16511;DHT22;8368;48.772;8.754;2023-04-22T04:06:20;7.00;99.90
16511;DHT22;8368;48.772;8.754;2023-04-22T04:08:46;7.00;99.90
16511;DHT22;8368;48.772;8.754;2023-04-22T04:11:11;7.00;99.90
16511;DHT22;8368;48.772;8.754;2023-04-22T04:13:37;7.00;99.90
16511;DHT22;8368;48.772;8.754;2023-04-22T04:16:02;7.00;99.90
16511;DHT22;8368;48.772;8.754;2023-04-22T04:18:28;7.00;99.90
16511;DHT22;8368;48.772;8.754;2023-04-22T04:20:54;7.00;99.90
16511;DHT22;8368;48.772;8.754;2023-04-22T04:23:20;7.00;99.90
16511;DHT22;8368;48.772;8.754;2023-04-22T04:25:46;7.00;99.90
16511;DHT22;8368;48.772;8.754;2023-04-22T04:28:12;7.00;99.90
16511;DHT22;8368;48.772;8.754;2023-04-22T04:30:38;7.00;99.90
16511;DHT22;8368;48.772;8.754;2023-04-22T04:33:06;7.00;99.90
16511;DHT22;8368;48.772;8.754;2023-04-22T04:35:35;7.00;99.90
16511;DHT22;8368;48.772;8.754;2023-04-22T04:38:02;7.10;99.90
16511;DHT22;8368;48.772;8.754;2023-04-22T04:40:28;7.00;99.90
16511;DHT22;8368;48.772;8.754;2023-04-22T04:42:55;7.00;99.90
16511;DHT22;8368;48.772;8.754;2023-04-22T04:45:22;7.00;99.90
16511;DHT22;8368;48.772;8.754;2023-04-22T04:47:48;7.00;99.90
16511;DHT22;8368;48.772;8.754;2023-04-22T04:50:17;7.00;99.90
16511;DHT22;8368;48.772;8.754;2023-04-22T04:52:44;6.90;99.90
16511;DHT22;8368;48.772;8.754;2023-04-22T04:55:10;6.90;99.90
16511;DHT22;8368;48.772;8.754;2023-04-22T04:57:36;6.90;99.90
16511;DHT22;8368;48.772;8.754;2023-04-22T05:00:01;6.90;99.90
16511;DHT22;8368;48.772;8.754;2023-04-22T05:02:27;6.80;99.90
16511;DHT22;8368;48.772;8.754;2023-04-22T05:04:53;6.90;99.90
16511;DHT22;8368;48.772;8.754;2023-04-22T05:07:18;6.80;99.90
16511;DHT22;8368;48.772;8.754;2023-04-22T05:09:44;6.80;99.90
16511;DHT22;8368;48.772;8.754;2023-04-22T05:12:09;6.80;99.90
16511;DHT22;8368;48.772;8.754;2023-04-22T05:14:35;6.80;99.90
16511;DHT22;8368;48.772;8.754;2023-04-22T05:17:01;6.80;99.90
16511;DHT22;8368;48.772;8.754;2023-04-22T05:19:26;6.90;99.90
16511;DHT22;8368;48.772;8.754;2023-04-22T05:21:52;6.80;99.90
16511;DHT22;8368;48.772;8.754;2023-04-22T05:24:17;6.90;99.90
16511;DHT22;8368;48.772;8.754;2023-04-22T05:26:43;6.90;99.90
16511;DHT22;8368;48.772;8.754;2023-04-22T05:29:09;6.90;99.90
16511;DHT22;8368;48.772;8.754;2023-04-22T05:31:34;6.90;99.90
16511;DHT22;8368;48.772;8.754;2023-04-22T05:33:59;7.00;99.90
16511;DHT22;8368;48.772;8.754;2023-04-22T05:36:25;7.00;99.90
16511;DHT22;8368;48.772;8.754;2023-04-22T05:38:52;7.00;99.90
16511;DHT22;8368;48.772;8.754;2023-04-22T05:41:17;7.10;99.90
16511;DHT22;8368;48.772;8.754;2023-04-22T05:43:42;7.10;99.90
16511;DHT22;8368;48.772;8.754;2023-04-22T05:46:08;7.20;99.90
16511;DHT22;8368;48.772;8.754;2023-04-22T05:48:34;7.30;99.90
16511;DHT22;8368;48.772;8.754;2023-04-22T05:50:59;7.30;99.90
16511;DHT22;8368;48.772;8.754;2023-04-22T05:53:25;7.40;99.90
16511;DHT22;8368;48.772;8.754;2023-04-22T05:55:50;7.60;99.90
16511;DHT22;8368;48.772;8.754;2023-04-22T05:58:16;7.80;99.90
16511;DHT22;8368;48.772;8.754;2023-04-22T06:00:41;8.00;99.90
16511;DHT22;8368;48.772;8.754;2023-04-22T06:03:07;8.40;99.90
16511;DHT22;8368;48.772;8.754;2023-04-22T06:05:32;8.60;99.90
16511;DHT22;8368;48.772;8.754;2023-04-22T06:07:58;8.80;99.90
16511;DHT22;8368;48.772;8.754;2023-04-22T06:10:24;9.00;99.90
16511;DHT22;8368;48.772;8.754;2023-04-22T06:12:49;9.20;99.90
16511;DHT22;8368;48.772;8.754;2023-04-22T06:15:15;9.40;99.90
16511;DHT22;8368;48.772;8.754;2023-04-22T06:17:40;9.50;99.90
16511;DHT22;8368;48.772;8.754;2023-04-22T06:20:06;9.60;99.90
16511;DHT22;8368;48.772;8.754;2023-04-22T06:22:32;9.60;99.90
16511;DHT22;8368;48.772;8.754;2023-04-22T06:24:57;9.70;99.90
16511;DHT22;8368;48.772;8.754;2023-04-22T06:27:23;9.70;99.90
16511;DHT22;8368;48.772;8.754;2023-04-22T06:29:48;9.60;99.90
16511;DHT22;8368;48.772;8.754;2023-04-22T06:32:14;9.70;99.90
16511;DHT22;8368;48.772;8.754;2023-04-22T06:34:39;9.70;99.90
16511;DHT22;8368;48.772;8.754;2023-04-22T06:37:05;9.70;99.90
16511;DHT22;8368;48.772;8.754;2023-04-22T06:39:30;9.60;99.90
16511;DHT22;8368;48.772;8.754;2023-04-22T06:41:56;9.60;99.90
16511;DHT22;8368;48.772;8.754;2023-04-22T06:44:21;9.70;99.90
16511;DHT22;8368;48.772;8.754;2023-04-22T06:46:49;9.70;99.90
16511;DHT22;8368;48.772;8.754;2023-04-22T06:49:14;9.70;99.90
16511;DHT22;8368;48.772;8.754;2023-04-22T06:51:40;9.70;99.90
16511;DHT22;8368;48.772;8.754;2023-04-22T06:54:05;9.80;99.90
16511;DHT22;8368;48.772;8.754;2023-04-22T06:56:31;9.80;99.90
16511;DHT22;8368;48.772;8.754;2023-04-22T06:58:56;9.90;99.90
16511;DHT22;8368;48.772;8.754;2023-04-22T07:01:22;10.00;99.90
16511;DHT22;8368;48.772;8.754;2023-04-22T07:03:47;10.00;99.90
16511;DHT22;8368;48.772;8.754;2023-04-22T07:06:13;10.10;99.90
16511;DHT22;8368;48.772;8.754;2023-04-22T07:08:47;10.10;99.90
16511;DHT22;8368;48.772;8.754;2023-04-22T07:11:13;10.10;99.90
16511;DHT22;8368;48.772;8.754;2023-04-22T07:13:38;10.10;99.90
16511;DHT22;8368;48.772;8.754;2023-04-22T07:16:04;10.20;99.90
16511;DHT22;8368;48.772;8.754;2023-04-22T07:18:30;10.20;99.90
16511;DHT22;8368;48.772;8.754;2023-04-22T07:20:56;10.30;99.90
16511;DHT22;8368;48.772;8.754;2023-04-22T07:23:22;10.40;99.90
16511;DHT22;8368;48.772;8.754;2023-04-22T07:25:47;10.40;99.90
16511;DHT22;8368;48.772;8.754;2023-04-22T07:28:13;10.50;99.90
16511;DHT22;8368;48.772;8.754;2023-04-22T07:30:38;10.50;99.90
16511;DHT22;8368;48.772;8.754;2023-04-22T07:33:04;10.70;99.90
16511;DHT22;8368;48.772;8.754;2023-04-22T07:35:29;10.90;99.90
16511;DHT22;8368;48.772;8.754;2023-04-22T07:37:56;11.10;99.90
16511;DHT22;8368;48.772;8.754;2023-04-22T07:40:21;11.20;99.90
16511;DHT22;8368;48.772;8.754;2023-04-22T07:42:46;11.40;99.90
16511;DHT22;8368;48.772;8.754;2023-04-22T07:45:12;11.50;99.90
16511;DHT22;8368;48.772;8.754;2023-04-22T07:47:38;11.50;99.90
16511;DHT22;8368;48.772;8.754;2023-04-22T07:50:04;11.60;99.90
16511;DHT22;8368;48.772;8.754;2023-04-22T07:52:30;11.50;99.90
16511;DHT22;8368;48.772;8.754;2023-04-22T07:54:56;11.60;99.90
16511;DHT22;8368;48.772;8.754;2023-04-22T07:57:21;11.50;99.90
16511;DHT22;8368;48.772;8.754;2023-04-22T07:59:48;11.50;99.90
16511;DHT22;8368;48.772;8.754;2023-04-22T08:02:13;11.50;99.90
16511;DHT22;8368;48.772;8.754;2023-04-22T08:04:39;11.60;99.90
16511;DHT22;8368;48.772;8.754;2023-04-22T08:07:05;11.60;99.90
16511;DHT22;8368;48.772;8.754;2023-04-22T08:09:30;11.60;99.90
16511;DHT22;8368;48.772;8.754;2023-04-22T08:11:56;11.70;99.90
16511;DHT22;8368;48.772;8.754;2023-04-22T08:14:22;11.80;99.90
16511;DHT22;8368;48.772;8.754;2023-04-22T08:16:50;11.90;99.90
16511;DHT22;8368;48.772;8.754;2023-04-22T08:19:16;12.20;99.90
16511;DHT22;8368;48.772;8.754;2023-04-22T08:21:41;12.20;99.90
16511;DHT22;8368;48.772;8.754;2023-04-22T08:24:07;12.40;99.90
16511;DHT22;8368;48.772;8.754;2023-04-22T08:26:32;12.50;99.90
16511;DHT22;8368;48.772;8.754;2023-04-22T08:28:59;12.70;99.90
16511;DHT22;8368;48.772;8.754;2023-04-22T08:31:25;12.80;99.90
16511;DHT22;8368;48.772;8.754;2023-04-22T08:33:50;12.90;99.90
16511;DHT22;8368;48.772;8.754;2023-04-22T08:36:16;13.00;99.90
16511;DHT22;8368;48.772;8.754;2023-04-22T08:38:42;13.10;99.90
16511;DHT22;8368;48.772;8.754;2023-04-22T08:41:08;13.20;99.90
16511;DHT22;8368;48.772;8.754;2023-04-22T08:43:34;13.40;99.90
16511;DHT22;8368;48.772;8.754;2023-04-22T08:46:00;13.50;99.90
16511;DHT22;8368;48.772;8.754;2023-04-22T08:48:26;13.70;99.90
16511;DHT22;8368;48.772;8.754;2023-04-22T08:50:52;13.90;99.90
16511;DHT22;8368;48.772;8.754;2023-04-22T08:53:20;14.10;99.90
16511;DHT22;8368;48.772;8.754;2023-04-22T08:55:46;14.40;99.90
16511;DHT22;8368;48.772;8.754;2023-04-22T08:58:13;14.50;99.90
16511;DHT22;8368;48.772;8.754;2023-04-22T09:00:41;14.70;99.90
16511;DHT22;8368;48.772;8.754;2023-04-22T09:03:07;14.80;99.90
16511;DHT22;8368;48.772;8.754;2023-04-22T09:05:35;15.00;99.90
16511;DHT22;8368;48.772;8.754;2023-04-22T09:08:02;15.00;99.90
16511;DHT22;8368;48.772;8.754;2023-04-22T09:10:29;15.10;99.90
16511;DHT22;8368;48.772;8.754;2023-04-22T09:12:55;15.10;99.90
16511;DHT22;8368;48.772;8.754;2023-04-22T09:15:23;15.20;99.90
16511;DHT22;8368;48.772;8.754;2023-04-22T09:17:50;15.20;99.90
16511;DHT22;8368;48.772;8.754;2023-04-22T09:20:16;15.30;99.90
16511;DHT22;8368;48.772;8.754;2023-04-22T09:22:47;15.50;99.90
16511;DHT22;8368;48.772;8.754;2023-04-22T09:25:18;15.60;99.90
16511;DHT22;8368;48.772;8.754;2023-04-22T09:27:55;15.70;99.90
16511;DHT22;8368;48.772;8.754;2023-04-22T09:30:32;15.90;99.90
16511;DHT22;8368;48.772;8.754;2023-04-22T09:32:59;15.90;99.90
16511;DHT22;8368;48.772;8.754;2023-04-22T09:35:29;16.00;99.90
16511;DHT22;8368;48.772;8.754;2023-04-22T09:37:55;16.10;99.90
16511;DHT22;8368;48.772;8.754;2023-04-22T09:40:22;16.10;99.90
16511;DHT22;8368;48.772;8.754;2023-04-22T09:42:50;16.20;99.90
16511;DHT22;8368;48.772;8.754;2023-04-22T09:47:56;16.50;99.90
16511;DHT22;8368;48.772;8.754;2023-04-22T09:50:26;16.60;99.90
16511;DHT22;8368;48.772;8.754;2023-04-22T09:53:05;16.80;99.90
16511;DHT22;8368;48.772;8.754;2023-04-22T09:55:33;16.90;99.90
16511;DHT22;8368;48.772;8.754;2023-04-22T09:58:05;17.10;99.90
16511;DHT22;8368;48.772;8.754;2023-04-22T10:00:32;17.20;99.90
16511;DHT22;8368;48.772;8.754;2023-04-22T10:02:58;17.30;99.90
16511;DHT22;8368;48.772;8.754;2023-04-22T10:05:23;17.30;99.90
16511;DHT22;8368;48.772;8.754;2023-04-22T10:07:50;17.30;99.90
16511;DHT22;8368;48.772;8.754;2023-04-22T10:10:15;17.10;99.90
16511;DHT22;8368;48.772;8.754;2023-04-22T10:12:41;17.10;99.90
16511;DHT22;8368;48.772;8.754;2023-04-22T10:15:07;16.90;99.90
16511;DHT22;8368;48.772;8.754;2023-04-22T10:17:37;16.90;99.90
16511;DHT22;8368;48.772;8.754;2023-04-22T10:20:06;16.80;99.90
16511;DHT22;8368;48.772;8.754;2023-04-22T10:22:34;16.90;99.90
16511;DHT22;8368;48.772;8.754;2023-04-22T10:25:00;17.10;99.90
16511;DHT22;8368;48.772;8.754;2023-04-22T10:27:26;17.10;99.90
16511;DHT22;8368;48.772;8.754;2023-04-22T10:29:51;17.20;99.90
16511;DHT22;8368;48.772;8.754;2023-04-22T10:34:47;17.60;99.90
16511;DHT22;8368;48.772;8.754;2023-04-22T10:37:17;17.80;99.90
16511;DHT22;8368;48.772;8.754;2023-04-22T10:40:07;18.00;99.90
16511;DHT22;8368;48.772;8.754;2023-04-22T10:42:33;18.10;99.90
16511;DHT22;8368;48.772;8.754;2023-04-22T10:45:03;18.20;99.90
16511;DHT22;8368;48.772;8.754;2023-04-22T10:50:23;18.60;99.90
16511;DHT22;8368;48.772;8.754;2023-04-22T10:55:54;19.20;99.90
16511;DHT22;8368;48.772;8.754;2023-04-22T10:58:22;19.20;99.90
16511;DHT22;8368;48.772;8.754;2023-04-22T11:00:52;19.50;99.90
16511;DHT22;8368;48.772;8.754;2023-04-22T11:03:28;19.70;99.90
16511;DHT22;8368;48.772;8.754;2023-04-22T11:06:20;19.90;99.90
16511;DHT22;8368;48.772;8.754;2023-04-22T11:08:48;19.90;99.90
16511;DHT22;8368;48.772;8.754;2023-04-22T11:11:16;19.90;99.90
16511;DHT22;8368;48.772;8.754;2023-04-22T11:13:42;19.90;99.90
16511;DHT22;8368;48.772;8.754;2023-04-22T11:16:08;20.00;99.90
16511;DHT22;8368;48.772;8.754;2023-04-22T11:18:34;19.90;99.90
16511;DHT22;8368;48.772;8.754;2023-04-22T11:21:06;19.70;99.90
16511;DHT22;8368;48.772;8.754;2023-04-22T11:23:33;19.50;99.90
16511;DHT22;8368;48.772;8.754;2023-04-22T11:26:01;19.60;99.90
16511;DHT22;8368;48.772;8.754;2023-04-22T11:28:28;19.70;99.90
16511;DHT22;8368;48.772;8.754;2023-04-22T11:31:05;19.90;99.90
16511;DHT22;8368;48.772;8.754;2023-04-22T11:33:33;20.10;99.90
16511;DHT22;8368;48.772;8.754;2023-04-22T11:36:00;20.20;99.90
16511;DHT22;8368;48.772;8.754;2023-04-22T11:38:26;20.30;99.90
16511;DHT22;8368;48.772;8.754;2023-04-22T11:40:54;20.30;99.90
16511;DHT22;8368;48.772;8.754;2023-04-22T11:43:20;20.40;99.90
16511;DHT22;8368;48.772;8.754;2023-04-22T11:45:45;20.20;99.90
16511;DHT22;8368;48.772;8.754;2023-04-22T11:48:12;20.20;99.90
16511;DHT22;8368;48.772;8.754;2023-04-22T11:50:40;20.20;99.90
16511;DHT22;8368;48.772;8.754;2023-04-22T11:53:35;20.40;99.90
16511;DHT22;8368;48.772;8.754;2023-04-22T11:56:03;20.70;99.90
16511;DHT22;8368;48.772;8.754;2023-04-22T11:58:28;20.70;99.90
16511;DHT22;8368;48.772;8.754;2023-04-22T12:00:57;20.70;99.90
16511;DHT22;8368;48.772;8.754;2023-04-22T12:03:24;20.60;99.90
16511;DHT22;8368;48.772;8.754;2023-04-22T12:05:52;20.70;99.90
16511;DHT22;8368;48.772;8.754;2023-04-22T12:08:20;20.60;99.90
16511;DHT22;8368;48.772;8.754;2023-04-22T12:10:54;20.30;99.90
16511;DHT22;8368;48.772;8.754;2023-04-22T12:13:27;20.20;99.90
16511;DHT22;8368;48.772;8.754;2023-04-22T12:15:59;20.20;99.90
16511;DHT22;8368;48.772;8.754;2023-04-22T12:26:11;20.00;99.90
16511;DHT22;8368;48.772;8.754;2023-04-22T12:28:38;19.90;99.90
16511;DHT22;8368;48.772;8.754;2023-04-22T12:31:04;19.90;99.90
16511;DHT22;8368;48.772;8.754;2023-04-22T12:33:30;19.70;99.90
16511;DHT22;8368;48.772;8.754;2023-04-22T12:35:55;19.60;99.90
16511;DHT22;8368;48.772;8.754;2023-04-22T12:38:21;19.50;99.90
16511;DHT22;8368;48.772;8.754;2023-04-22T12:40:47;19.50;99.90
16511;DHT22;8368;48.772;8.754;2023-04-22T12:43:12;19.50;99.90
16511;DHT22;8368;48.772;8.754;2023-04-22T12:45:38;19.60;99.90
16511;DHT22;8368;48.772;8.754;2023-04-22T12:48:03;19.40;99.90
16511;DHT22;8368;48.772;8.754;2023-04-22T12:50:29;19.40;99.90
16511;DHT22;8368;48.772;8.754;2023-04-22T12:52:54;19.40;99.90
16511;DHT22;8368;48.772;8.754;2023-04-22T12:55:20;19.50;99.90
16511;DHT22;8368;48.772;8.754;2023-04-22T12:57:47;19.50;99.90
16511;DHT22;8368;48.772;8.754;2023-04-22T13:00:13;19.50;99.90
16511;DHT22;8368;48.772;8.754;2023-04-22T13:02:41;19.50;99.90
16511;DHT22;8368;48.772;8.754;2023-04-22T13:05:07;19.30;99.90
16511;DHT22;8368;48.772;8.754;2023-04-22T13:07:33;19.30;99.90
16511;DHT22;8368;48.772;8.754;2023-04-22T13:09:58;19.20;99.90
16511;DHT22;8368;48.772;8.754;2023-04-22T13:12:24;19.10;99.90
16511;DHT22;8368;48.772;8.754;2023-04-22T13:14:49;19.10;99.90
16511;DHT22;8368;48.772;8.754;2023-04-22T13:17:15;19.20;99.90
16511;DHT22;8368;48.772;8.754;2023-04-22T13:19:40;19.50;99.90
16511;DHT22;8368;48.772;8.754;2023-04-22T13:22:06;19.70;99.90
16511;DHT22;8368;48.772;8.754;2023-04-22T13:24:31;19.70;99.90
16511;DHT22;8368;48.772;8.754;2023-04-22T13:26:57;19.70;99.90
16511;DHT22;8368;48.772;8.754;2023-04-22T13:29:23;19.70;99.90
16511;DHT22;8368;48.772;8.754;2023-04-22T13:31:49;19.50;99.90
16511;DHT22;8368;48.772;8.754;2023-04-22T13:34:15;19.30;99.90
16511;DHT22;8368;48.772;8.754;2023-04-22T13:36:40;19.20;99.90
16511;DHT22;8368;48.772;8.754;2023-04-22T13:39:06;19.00;99.90
16511;DHT22;8368;48.772;8.754;2023-04-22T13:41:33;19.00;99.90
16511;DHT22;8368;48.772;8.754;2023-04-22T13:43:58;19.20;99.90
16511;DHT22;8368;48.772;8.754;2023-04-22T13:46:24;19.50;99.90
16511;DHT22;8368;48.772;8.754;2023-04-22T13:48:52;19.70;99.90
16511;DHT22;8368;48.772;8.754;2023-04-22T13:51:18;19.80;99.90
16511;DHT22;8368;48.772;8.754;2023-04-22T13:53:44;19.60;99.90
16511;DHT22;8368;48.772;8.754;2023-04-22T13:56:10;19.50;99.90
16511;DHT22;8368;48.772;8.754;2023-04-22T13:58:38;19.40;99.90
16511;DHT22;8368;48.772;8.754;2023-04-22T14:01:06;19.30;99.90
16511;DHT22;8368;48.772;8.754;2023-04-22T14:03:31;19.20;99.90
16511;DHT22;8368;48.772;8.754;2023-04-22T14:05:57;18.90;99.90
16511;DHT22;8368;48.772;8.754;2023-04-22T14:08:23;18.80;99.90
16511;DHT22;8368;48.772;8.754;2023-04-22T14:10:48;18.60;99.90
16511;DHT22;8368;48.772;8.754;2023-04-22T14:13:14;18.40;99.90
16511;DHT22;8368;48.772;8.754;2023-04-22T14:15:40;18.30;99.90
16511;DHT22;8368;48.772;8.754;2023-04-22T14:18:05;18.20;99.90
16511;DHT22;8368;48.772;8.754;2023-04-22T14:20:31;18.10;99.90
16511;DHT22;8368;48.772;8.754;2023-04-22T14:22:56;18.10;99.90
16511;DHT22;8368;48.772;8.754;2023-04-22T14:25:22;17.90;99.90
16511;DHT22;8368;48.772;8.754;2023-04-22T14:27:47;17.80;99.90
16511;DHT22;8368;48.772;8.754;2023-04-22T14:30:13;17.60;99.90
16511;DHT22;8368;48.772;8.754;2023-04-22T14:32:40;17.40;99.90
16511;DHT22;8368;48.772;8.754;2023-04-22T14:35:06;17.40;99.90
16511;DHT22;8368;48.772;8.754;2023-04-22T14:37:32;17.30;99.90
16511;DHT22;8368;48.772;8.754;2023-04-22T14:39:58;17.30;99.90
16511;DHT22;8368;48.772;8.754;2023-04-22T14:42:24;17.30;99.90
16511;DHT22;8368;48.772;8.754;2023-04-22T14:44:49;17.30;99.90
16511;DHT22;8368;48.772;8.754;2023-04-22T14:47:15;17.30;99.90
16511;DHT22;8368;48.772;8.754;2023-04-22T14:49:40;17.30;99.90
16511;DHT22;8368;48.772;8.754;2023-04-22T14:52:06;17.40;99.90
16511;DHT22;8368;48.772;8.754;2023-04-22T14:54:32;17.50;99.90
16511;DHT22;8368;48.772;8.754;2023-04-22T14:56:57;17.40;99.90
16511;DHT22;8368;48.772;8.754;2023-04-22T14:59:23;17.40;99.90
16511;DHT22;8368;48.772;8.754;2023-04-22T15:01:48;17.40;99.90
16511;DHT22;8368;48.772;8.754;2023-04-22T15:04:14;17.40;99.90
16511;DHT22;8368;48.772;8.754;2023-04-22T15:06:41;17.40;99.90
16511;DHT22;8368;48.772;8.754;2023-04-22T15:09:06;17.40;99.90
16511;DHT22;8368;48.772;8.754;2023-04-22T15:11:32;17.40;99.90
16511;DHT22;8368;48.772;8.754;2023-04-22T15:13:57;17.50;99.90
16511;DHT22;8368;48.772;8.754;2023-04-22T15:16:23;17.50;99.90
16511;DHT22;8368;48.772;8.754;2023-04-22T15:18:49;17.50;99.90
16511;DHT22;8368;48.772;8.754;2023-04-22T15:21:14;17.50;99.90
16511;DHT22;8368;48.772;8.754;2023-04-22T15:23:40;17.60;99.90
16511;DHT22;8368;48.772;8.754;2023-04-22T15:26:05;17.50;99.90
16511;DHT22;8368;48.772;8.754;2023-04-22T15:28:32;17.50;99.90
16511;DHT22;8368;48.772;8.754;2023-04-22T15:30:57;17.50;99.90
16511;DHT22;8368;48.772;8.754;2023-04-22T15:33:23;17.60;99.90
16511;DHT22;8368;48.772;8.754;2023-04-22T15:35:48;17.60;99.90
16511;DHT22;8368;48.772;8.754;2023-04-22T15:38:16;17.60;99.90
16511;DHT22;8368;48.772;8.754;2023-04-22T15:40:41;17.60;99.90
16511;DHT22;8368;48.772;8.754;2023-04-22T15:43:07;17.70;99.90
16511;DHT22;8368;48.772;8.754;2023-04-22T15:45:36;17.90;99.90
16511;DHT22;8368;48.772;8.754;2023-04-22T15:48:01;18.00;99.90
16511;DHT22;8368;48.772;8.754;2023-04-22T15:50:29;18.00;99.90
16511;DHT22;8368;48.772;8.754;2023-04-22T15:52:55;18.00;99.90
16511;DHT22;8368;48.772;8.754;2023-04-22T15:55:21;18.00;99.90
16511;DHT22;8368;48.772;8.754;2023-04-22T15:57:46;18.00;99.90
16511;DHT22;8368;48.772;8.754;2023-04-22T16:00:13;17.90;99.90
16511;DHT22;8368;48.772;8.754;2023-04-22T16:02:39;18.10;99.90
16511;DHT22;8368;48.772;8.754;2023-04-22T16:05:05;18.10;99.90